createdAt,value
2023-02-25T00:04:55.501Z,81.89
2023-02-25T00:09:56.937Z,81.88
2023-02-25T00:14:58.380Z,80.72
2023-02-25T00:20:00.726Z,80.16
2023-02-25T00:25:02.270Z,78.70
2023-02-25T00:30:05.412Z,79.40
2023-02-25T00:35:12.967Z,78.57
2023-02-25T00:40:14.752Z,78.99
2023-02-25T00:45:16.383Z,78.92
2023-02-25T00:50:17.894Z,78.14
2023-02-25T00:55:19.303Z,77.96
2023-02-25T01:00:20.850Z,77.88
2023-02-25T01:05:22.933Z,77.88
2023-02-25T01:10:24.536Z,77.34
2023-02-25T01:15:26.154Z,77.60
2023-02-25T01:20:29.900Z,77.03
2023-02-25T01:25:31.337Z,76.41
2023-02-25T01:30:35.775Z,76.90
2023-02-25T01:35:37.309Z,76.85
2023-02-25T01:40:38.856Z,77.86
2023-02-25T01:45:44.778Z,77.53
2023-02-25T01:50:50.953Z,76.93
2023-02-25T01:55:52.952Z,76.96
2023-02-25T02:00:55.934Z,77.45
2023-02-25T02:06:04.803Z,76.68
2023-02-25T02:11:06.470Z,76.75
2023-02-25T02:16:29.309Z,76.61
2023-02-25T02:22:00.665Z,77.05
2023-02-25T02:27:11.147Z,76.79
2023-02-25T02:32:26.729Z,76.68
2023-02-25T02:37:42.310Z,77.49
2023-02-25T02:43:06.886Z,77.88
2023-02-25T02:48:27.327Z,77.24
2023-02-25T02:53:38.136Z,77.42
2023-02-25T02:58:53.138Z,78.14
2023-02-25T03:04:02.712Z,77.20
2023-02-25T03:09:12.652Z,76.63
2023-02-25T03:14:14.990Z,77.50
2023-02-25T03:19:21.281Z,76.88
2023-02-25T03:24:29.037Z,76.94
2023-02-25T03:29:30.507Z,76.84
2023-02-25T03:34:37.687Z,76.34
2023-02-25T03:39:44.017Z,76.29
2023-02-25T03:44:52.154Z,76.93
2023-02-25T03:50:22.490Z,77.40
2023-02-25T03:55:26.111Z,77.73
2023-02-25T04:00:31.080Z,77.57
2023-02-25T04:05:32.570Z,77.34
2023-02-25T04:10:34.279Z,76.92
2023-02-25T04:15:36.362Z,76.59
2023-02-25T04:20:39.172Z,76.07
2023-02-25T04:25:41.141Z,75.95
2023-02-25T04:30:42.837Z,75.72
2023-02-25T04:35:44.402Z,75.17
2023-02-25T04:40:46.029Z,73.96
2023-02-25T04:45:47.563Z,74.78
2023-02-25T04:50:49.203Z,74.89
2023-02-25T04:55:50.703Z,73.49
2023-02-25T05:00:52.714Z,74.00
2023-02-25T05:05:54.662Z,73.30
2023-02-25T05:10:56.247Z,73.68
2023-02-25T05:16:09.580Z,73.67
2023-02-25T05:21:12.945Z,73.14
2023-02-25T05:26:16.697Z,72.53
2023-02-25T05:31:18.836Z,72.25
2023-02-25T05:36:21.167Z,72.87
2023-02-25T05:41:22.806Z,72.34
2023-02-25T05:46:26.841Z,72.75
2023-02-25T05:51:28.904Z,72.95
2023-02-25T05:56:32.272Z,72.89
2023-02-25T06:01:33.928Z,71.80
2023-02-25T06:06:35.602Z,71.07
2023-02-25T06:11:37.378Z,71.38
2023-02-25T06:16:40.416Z,70.99
2023-02-25T06:21:42.038Z,71.71
2023-02-25T06:26:43.587Z,70.80
2023-02-25T06:31:45.263Z,70.64
2023-02-25T06:36:46.871Z,69.63
2023-02-25T06:41:49.464Z,70.00
2023-02-25T06:46:52.118Z,70.38
2023-02-25T06:51:53.605Z,70.17
2023-02-25T06:56:56.187Z,70.63
2023-02-25T07:01:57.876Z,70.46
2023-02-25T07:06:59.555Z,70.34
2023-02-25T07:12:01.093Z,69.84
2023-02-25T07:17:03.822Z,69.86
2023-02-25T07:22:05.549Z,69.53
2023-02-25T07:27:08.244Z,70.12
2023-02-25T07:32:09.811Z,69.36
2023-02-25T07:37:12.957Z,69.46
2023-02-25T07:42:14.431Z,69.13
2023-02-25T07:47:15.877Z,68.82
2023-02-25T07:52:17.453Z,67.66
2023-02-25T07:57:18.953Z,68.14
2023-02-25T08:02:21.562Z,66.86
2023-02-25T08:07:23.103Z,66.29
2023-02-25T08:12:24.778Z,65.71
2023-02-25T08:17:31.255Z,66.36
2023-02-25T08:22:33.286Z,65.98
2023-02-25T08:27:35.878Z,64.48
2023-02-25T08:32:37.580Z,65.04
2023-02-25T08:37:39.108Z,64.46
2023-02-25T08:42:40.784Z,64.39
2023-02-25T08:47:42.315Z,64.49
2023-02-25T08:52:44.234Z,64.97
2023-02-25T08:57:45.733Z,65.60
2023-02-25T09:02:48.167Z,65.40
2023-02-25T09:07:50.611Z,65.40
2023-02-25T09:12:53.281Z,64.52
2023-02-25T09:17:56.691Z,64.17
2023-02-25T09:22:59.703Z,63.12
2023-02-25T09:28:01.190Z,62.83
2023-02-25T09:33:02.782Z,61.31
2023-02-25T09:38:04.302Z,61.62
2023-02-25T09:43:21.404Z,59.60
2023-02-25T09:48:34.294Z,59.46
2023-02-25T09:53:44.282Z,59.14
2023-02-25T09:58:58.482Z,56.93
2023-02-25T10:04:08.976Z,55.71
2023-02-25T10:09:13.425Z,53.26
2023-02-25T10:14:42.899Z,55.43
2023-02-25T10:20:04.364Z,55.38
2023-02-25T10:25:15.485Z,55.08
2023-02-25T10:30:25.373Z,54.38
2023-02-25T10:35:29.673Z,54.92
2023-02-25T10:40:31.225Z,54.12
2023-02-25T10:45:32.803Z,54.26
2023-02-25T10:50:45.628Z,55.56
2023-02-25T10:55:54.965Z,55.36
2023-02-25T11:01:05.465Z,55.67
2023-02-25T11:06:14.064Z,56.73
2023-02-25T11:11:24.998Z,57.14
2023-02-25T11:16:28.391Z,56.44
2023-02-25T11:21:38.622Z,56.90
2023-02-25T11:26:45.074Z,57.72
2023-02-25T11:31:52.283Z,57.50
2023-02-25T11:36:54.244Z,56.58
2023-02-25T11:41:59.669Z,57.17
2023-02-25T11:47:06.634Z,56.76
2023-02-25T11:52:19.975Z,57.10
2023-02-25T11:57:36.152Z,56.62
2023-02-25T12:03:02.554Z,57.51
2023-02-25T12:08:17.004Z,57.57
2023-02-25T12:13:41.049Z,57.70
2023-02-25T12:18:57.806Z,58.70
2023-02-25T12:24:36.911Z,58.99
2023-02-25T12:29:51.977Z,59.01
2023-02-25T12:35:06.867Z,58.79
2023-02-25T12:40:37.601Z,58.54
2023-02-25T12:46:00.122Z,58.56
2023-02-25T12:51:13.582Z,57.48
2023-02-25T12:57:01.278Z,57.01
2023-02-25T13:02:28.859Z,57.84
2023-02-25T13:07:40.025Z,57.46
2023-02-25T13:13:12.328Z,57.33
2023-02-25T13:18:19.986Z,56.67
2023-02-25T13:24:00.577Z,56.86
2023-02-25T13:29:13.931Z,56.58
2023-02-25T13:34:38.883Z,54.44
2023-02-25T13:39:59.188Z,54.63
2023-02-25T13:45:21.412Z,54.91
2023-02-25T13:50:40.100Z,54.62
2023-02-25T13:56:20.323Z,55.29
2023-02-25T14:01:43.450Z,54.38
2023-02-25T14:07:26.850Z,54.04
2023-02-25T14:12:44.346Z,54.35
2023-02-25T14:18:13.330Z,54.73
2023-02-25T14:23:37.941Z,53.21
2023-02-25T14:28:42.357Z,53.74
2023-02-25T14:34:05.414Z,53.67
2023-02-25T14:39:27.201Z,53.21
2023-02-25T14:44:49.442Z,53.74
2023-02-25T14:50:25.968Z,54.05
2023-02-25T14:55:30.436Z,54.53
2023-02-25T15:01:07.632Z,53.53
2023-02-25T15:07:06.690Z,54.46
2023-02-25T15:12:17.373Z,53.16
2023-02-25T15:17:37.551Z,52.69
2023-02-25T15:22:53.742Z,53.75
2023-02-25T15:27:56.723Z,53.26
2023-02-25T15:33:24.911Z,53.09
2023-02-25T15:38:47.033Z,53.98
2023-02-25T15:43:48.868Z,54.13
2023-02-25T15:49:16.631Z,53.95
2023-02-25T15:54:30.428Z,55.49
2023-02-25T15:59:55.308Z,56.95
2023-02-25T16:05:10.045Z,57.35
2023-02-25T16:10:34.290Z,58.34
2023-02-25T16:15:44.825Z,59.15
2023-02-25T16:20:48.341Z,58.88
2023-02-25T16:26:00.606Z,60.39
2023-02-25T16:31:04.969Z,61.31
2023-02-25T16:36:27.437Z,61.66
2023-02-25T16:41:37.562Z,62.74
2023-02-25T16:46:41.673Z,63.54
2023-02-25T16:51:45.302Z,64.31
2023-02-25T16:56:58.546Z,65.73
2023-02-25T17:02:19.841Z,67.59
2023-02-25T17:07:30.104Z,68.05
2023-02-25T17:12:37.130Z,67.97
2023-02-25T17:17:41.470Z,68.41
2023-02-25T17:22:44.433Z,68.34
2023-02-25T17:27:48.612Z,68.36
2023-02-25T17:32:59.205Z,68.44
2023-02-25T17:38:00.709Z,69.02
2023-02-25T17:43:38.061Z,68.20
2023-02-25T17:48:43.427Z,69.08
2023-02-25T17:53:56.102Z,68.82
2023-02-25T17:59:07.682Z,69.12
2023-02-25T18:04:41.214Z,69.38
2023-02-25T18:09:42.667Z,68.97
2023-02-25T18:14:46.137Z,69.32
2023-02-25T18:19:47.996Z,69.79
2023-02-25T18:24:58.385Z,69.53
2023-02-25T18:30:16.111Z,68.73
2023-02-25T18:35:18.075Z,68.38
2023-02-25T18:40:30.131Z,69.34
2023-02-25T18:45:33.495Z,68.31
2023-02-25T18:50:34.982Z,68.55
2023-02-25T18:55:36.446Z,68.16
2023-02-25T19:00:37.883Z,68.93
2023-02-25T19:05:39.418Z,68.84
2023-02-25T19:10:43.620Z,69.35
2023-02-25T19:15:45.559Z,69.08
2023-02-25T19:20:47.244Z,69.44
2023-02-25T19:25:53.936Z,69.67
2023-02-25T19:30:55.631Z,69.84
2023-02-25T19:35:57.599Z,69.19
2023-02-25T19:41:05.020Z,69.97
2023-02-25T19:46:09.995Z,69.74
2023-02-25T19:51:11.565Z,69.39
2023-02-25T19:56:12.965Z,70.17
2023-02-25T20:01:14.434Z,69.15
2023-02-25T20:06:15.898Z,69.16
2023-02-25T20:11:17.828Z,68.75
2023-02-25T20:16:21.271Z,68.46
2023-02-25T20:21:23.989Z,67.07
2023-02-25T20:26:28.594Z,67.20
2023-02-25T20:31:30.280Z,65.55
2023-02-25T20:36:38.528Z,63.64
2023-02-25T20:41:41.208Z,63.71
2023-02-25T20:46:43.517Z,63.41
2023-02-25T20:51:47.213Z,61.13
2023-02-25T20:56:49.224Z,61.66
2023-02-25T21:01:50.662Z,61.26
2023-02-25T21:06:52.068Z,61.15
2023-02-25T21:11:53.519Z,61.87
2023-02-25T21:16:55.257Z,61.50
2023-02-25T21:21:56.680Z,61.15
2023-02-25T21:26:58.136Z,61.24
2023-02-25T21:32:00.124Z,60.93
2023-02-25T21:37:01.630Z,61.25
2023-02-25T21:42:03.313Z,60.68
2023-02-25T21:47:05.001Z,59.76
2023-02-25T21:52:07.585Z,60.33
2023-02-25T21:57:09.063Z,60.02
2023-02-25T22:02:10.649Z,60.02
2023-02-25T22:07:12.083Z,60.53
2023-02-25T22:12:13.514Z,59.95
2023-02-25T22:17:14.937Z,60.09
2023-02-25T22:22:16.357Z,59.79
2023-02-25T22:27:17.791Z,60.13
2023-02-25T22:32:19.249Z,59.83
2023-02-25T22:37:20.750Z,60.35
2023-02-25T22:42:22.178Z,60.05
2023-02-25T22:47:24.705Z,60.46
2023-02-25T22:52:26.124Z,60.81
2023-02-25T22:57:27.765Z,60.77
2023-02-25T23:02:29.210Z,60.60
2023-02-25T23:07:30.912Z,61.10
2023-02-25T23:12:32.396Z,61.17
2023-02-25T23:17:33.870Z,61.52
2023-02-25T23:22:35.473Z,61.84
2023-02-25T23:27:36.921Z,61.58
2023-02-25T23:32:41.022Z,61.96
2023-02-25T23:37:42.729Z,61.58
2023-02-25T23:42:44.697Z,61.92
2023-02-25T23:47:46.171Z,62.26
2023-02-25T23:52:47.679Z,61.88
2023-02-25T23:57:49.246Z,62.59
